Time;durP1;ratioP1;P1;durP2;ratioP2;P2;SDS_P1;SDS_P2;PMS_P1;PMS_P2;Temp;Humidity;BMP_temperature;BMP_pressure;BME280_temperature;BME280_humidity;BME280_pressure;Samples;Min_cycle;Max_cycle;Signal;HPM_P1;HPM_P2
2023/12/20 00:01:39;;;;;;;0.75;0.40;;;4.60;99.90;;;;;;5010212;28;20030;-74
2023/12/20 00:04:06;;;;;;;1.65;0.38;;;4.60;99.90;;;;;;5010593;28;20326;-74
2023/12/20 00:06:31;;;;;;;0.35;0.35;;;4.60;99.90;;;;;;5010307;28;20403;-74
2023/12/20 00:09:00;;;;;;;1.58;0.50;;;4.60;99.90;;;;;;5009962;28;20129;-74
2023/12/20 00:11:25;;;;;;;2.05;0.60;;;4.60;99.90;;;;;;5006827;28;20049;-74
2023/12/20 00:13:51;;;;;;;1.05;0.52;;;4.60;99.90;;;;;;4985473;28;20045;-74
2023/12/20 00:16:17;;;;;;;1.23;0.50;;;4.60;99.90;;;;;;5001327;28;20113;-74
2023/12/20 00:18:42;;;;;;;0.25;0.17;;;4.50;99.90;;;;;;5008504;28;20026;-74
2023/12/20 00:21:08;;;;;;;2.47;0.55;;;4.50;99.90;;;;;;4986951;28;20092;-74
2023/12/20 00:23:33;;;;;;;1.90;0.50;;;4.50;99.90;;;;;;5005318;28;20135;-74
2023/12/20 00:25:59;;;;;;;1.23;0.68;;;4.40;99.90;;;;;;4999310;28;20037;-74
2023/12/20 00:28:24;;;;;;;1.02;0.45;;;4.40;99.90;;;;;;5001095;28;20034;-74
2023/12/20 00:30:50;;;;;;;0.40;0.40;;;4.40;99.90;;;;;;5003840;28;20040;-74
2023/12/20 00:33:15;;;;;;;1.42;0.70;;;4.40;99.90;;;;;;5005439;28;20378;-74
2023/12/20 00:35:41;;;;;;;0.30;0.25;;;4.30;99.90;;;;;;5005160;28;20046;-74
2023/12/20 00:38:08;;;;;;;1.35;0.52;;;4.30;99.90;;;;;;5007522;28;20335;-73
2023/12/20 00:40:34;;;;;;;0.63;0.32;;;4.30;99.90;;;;;;5003929;28;20066;-74
2023/12/20 00:42:59;;;;;;;1.55;0.50;;;4.20;99.90;;;;;;5003663;28;20077;-75
2023/12/20 00:45:25;;;;;;;0.65;0.57;;;4.30;99.90;;;;;;4999813;28;20047;-74
2023/12/20 00:47:50;;;;;;;0.47;0.28;;;4.30;99.90;;;;;;5002645;28;20423;-74
2023/12/20 00:50:16;;;;;;;1.25;0.43;;;4.40;99.90;;;;;;5001320;28;20089;-74
2023/12/20 00:52:41;;;;;;;0.77;0.50;;;4.60;99.90;;;;;;5004434;28;20129;-74
2023/12/20 00:55:07;;;;;;;1.02;0.45;;;4.60;99.90;;;;;;5007593;28;20208;-74
2023/12/20 00:57:33;;;;;;;0.50;0.50;;;4.70;99.90;;;;;;5003648;28;20034;-74
2023/12/20 00:59:58;;;;;;;0.45;0.45;;;4.70;99.90;;;;;;5008802;28;20153;-74
2023/12/20 01:02:24;;;;;;;2.38;0.95;;;4.70;99.90;;;;;;5010072;28;20099;-74
2023/12/20 01:04:49;;;;;;;0.50;0.30;;;4.70;99.90;;;;;;5002683;28;20038;-74
2023/12/20 01:07:15;;;;;;;1.83;0.55;;;4.60;99.90;;;;;;5000135;28;20113;-74
2023/12/20 01:09:40;;;;;;;1.05;0.43;;;4.60;99.90;;;;;;5009721;28;20031;-74
2023/12/20 01:12:06;;;;;;;0.77;0.32;;;4.50;99.90;;;;;;5008778;28;20109;-74
2023/12/20 01:14:31;;;;;;;1.13;0.60;;;4.50;99.90;;;;;;5007597;28;20029;-74
2023/12/20 01:16:57;;;;;;;1.85;0.57;;;4.60;99.90;;;;;;5008995;28;20056;-74
2023/12/20 01:19:23;;;;;;;1.60;0.63;;;4.60;99.90;;;;;;5006099;28;20427;-74
2023/12/20 01:21:49;;;;;;;2.13;0.50;;;4.70;99.90;;;;;;5005525;28;20029;-74
2023/12/20 01:24:14;;;;;;;1.35;0.60;;;4.70;99.90;;;;;;5009519;28;20037;-74
2023/12/20 01:26:40;;;;;;;0.32;0.32;;;4.60;99.90;;;;;;5005622;28;20533;-74
2023/12/20 01:29:05;;;;;;;1.77;0.38;;;4.70;99.90;;;;;;5007068;28;20030;-74
2023/12/20 01:31:31;;;;;;;0.47;0.38;;;4.70;99.90;;;;;;5007985;28;20377;-74
2023/12/20 01:33:56;;;;;;;1.25;0.65;;;4.70;99.90;;;;;;5013718;28;20037;-74
2023/12/20 01:36:22;;;;;;;0.93;0.70;;;4.60;99.90;;;;;;5011863;28;20029;-74
2023/12/20 01:38:47;;;;;;;1.13;0.60;;;4.70;99.90;;;;;;5007311;28;20046;-74
2023/12/20 01:41:13;;;;;;;5.47;1.10;;;4.60;99.90;;;;;;5007700;28;20549;-74
2023/12/20 01:43:38;;;;;;;7.50;0.60;;;4.50;99.90;;;;;;5008777;28;20029;-74
2023/12/20 01:46:04;;;;;;;0.47;0.43;;;4.50;99.90;;;;;;5005728;28;20192;-74
2023/12/20 01:48:32;;;;;;;0.63;0.50;;;4.50;99.90;;;;;;5004685;28;20038;-74
2023/12/20 01:50:58;;;;;;;0.70;0.40;;;4.50;99.90;;;;;;5005597;28;20042;-74
2023/12/20 01:53:27;;;;;;;1.65;0.52;;;4.50;99.90;;;;;;5005490;28;20119;-74
2023/12/20 01:55:55;;;;;;;2.53;0.85;;;4.50;99.90;;;;;;5005521;28;20458;-74
2023/12/20 01:58:21;;;;;;;1.33;0.88;;;4.50;99.90;;;;;;4988031;28;20101;-74
2023/12/20 02:00:48;;;;;;;5.13;0.60;;;4.40;99.90;;;;;;5001341;28;20034;-74
2023/12/20 02:03:13;;;;;;;1.85;0.68;;;4.40;99.90;;;;;;5007018;28;20316;-74
2023/12/20 02:05:39;;;;;;;2.58;0.50;;;4.40;99.90;;;;;;5005011;28;20045;-74
2023/12/20 02:08:05;;;;;;;3.25;0.63;;;4.40;99.90;;;;;;5009446;28;20022;-74
2023/12/20 02:10:31;;;;;;;0.80;0.60;;;4.40;99.90;;;;;;5006352;28;20075;-74
2023/12/20 02:12:57;;;;;;;1.85;0.60;;;4.30;99.90;;;;;;5004725;28;20033;-74
2023/12/20 02:15:23;;;;;;;1.58;0.68;;;4.20;99.90;;;;;;5005871;28;20378;-74
2023/12/20 02:17:49;;;;;;;1.42;1.00;;;4.20;99.90;;;;;;5010524;28;20108;-74
2023/12/20 02:20:14;;;;;;;1.77;0.85;;;4.30;99.90;;;;;;4992327;28;20030;-74
2023/12/20 02:22:40;;;;;;;2.75;0.70;;;4.20;99.90;;;;;;5008606;28;20549;-74
2023/12/20 02:25:06;;;;;;;7.50;0.93;;;4.20;99.90;;;;;;4990981;28;20116;-74
2023/12/20 02:27:31;;;;;;;1.00;0.77;;;4.20;99.90;;;;;;5006854;28;20031;-74
2023/12/20 02:29:57;;;;;;;1.95;0.90;;;4.20;99.90;;;;;;5004735;28;20112;-74
2023/12/20 02:32:26;;;;;;;1.27;0.70;;;4.20;99.90;;;;;;5012799;28;20447;-74
2023/12/20 02:34:51;;;;;;;0.20;0.20;;;4.20;99.90;;;;;;4989897;28;20047;-74
2023/12/20 02:37:17;;;;;;;1.45;0.98;;;4.10;99.90;;;;;;5007142;28;20456;-74
2023/12/20 02:39:42;;;;;;;0.70;0.40;;;4.20;99.90;;;;;;5006939;28;20113;-74
2023/12/20 02:42:08;;;;;;;1.75;0.88;;;4.20;99.90;;;;;;5004282;28;20069;-74
2023/12/20 02:44:33;;;;;;;2.60;0.65;;;4.20;99.90;;;;;;5002110;28;20044;-74
2023/12/20 02:46:59;;;;;;;0.65;0.60;;;4.10;99.90;;;;;;4984838;28;20125;-74
2023/12/20 02:49:24;;;;;;;1.52;0.65;;;4.10;99.90;;;;;;5005475;28;20033;-74
2023/12/20 02:51:50;;;;;;;2.83;0.73;;;4.10;99.90;;;;;;5009041;28;20042;-74
2023/12/20 02:54:16;;;;;;;2.65;1.05;;;4.10;99.90;;;;;;5006010;28;20064;-74
2023/12/20 02:56:41;;;;;;;0.68;0.38;;;4.10;99.90;;;;;;5006471;28;20134;-74
2023/12/20 02:59:08;;;;;;;0.40;0.38;;;4.10;99.90;;;;;;4996529;28;20041;-74
2023/12/20 03:01:34;;;;;;;2.95;0.93;;;4.10;99.90;;;;;;5009333;28;20562;-74
2023/12/20 03:03:59;;;;;;;0.70;0.50;;;4.10;99.90;;;;;;5006170;28;20135;-74
2023/12/20 03:06:25;;;;;;;1.95;0.60;;;4.10;99.90;;;;;;4987742;28;20184;-74
2023/12/20 03:08:50;;;;;;;0.32;0.32;;;4.10;99.90;;;;;;5008991;28;20073;-74
2023/12/20 03:11:16;;;;;;;1.58;0.77;;;4.10;99.90;;;;;;5005854;28;20072;-74
2023/12/20 03:13:41;;;;;;;4.03;0.60;;;4.10;99.90;;;;;;5001884;28;20030;-74
2023/12/20 03:16:11;;;;;;;1.40;0.60;;;4.10;99.90;;;;;;5003498;28;20356;-74
2023/12/20 03:18:36;;;;;;;1.23;0.40;;;4.20;99.90;;;;;;5007562;28;20045;-74
2023/12/20 03:21:02;;;;;;;1.15;0.63;;;4.20;99.90;;;;;;5007970;28;20033;-74
2023/12/20 03:23:30;;;;;;;1.00;0.85;;;4.20;99.90;;;;;;5005024;28;20030;-74
2023/12/20 03:25:56;;;;;;;2.08;1.05;;;4.20;99.90;;;;;;5011671;28;20034;-74
2023/12/20 03:28:29;;;;;;;1.92;0.73;;;4.30;99.90;;;;;;5061352;27;20499;-72
2023/12/20 03:30:55;;;;;;;2.92;1.10;;;4.30;99.90;;;;;;5066622;28;20079;-73
2023/12/20 03:33:20;;;;;;;3.35;0.68;;;4.30;99.90;;;;;;5064789;28;20080;-72
2023/12/20 03:35:45;;;;;;;2.22;0.95;;;4.30;99.90;;;;;;5066416;28;20040;-73
2023/12/20 03:38:11;;;;;;;1.33;0.57;;;4.40;99.90;;;;;;5061205;28;20029;-72
2023/12/20 03:40:37;;;;;;;1.20;0.98;;;4.40;99.90;;;;;;5065342;28;20020;-72
2023/12/20 03:43:02;;;;;;;6.55;1.08;;;4.50;99.90;;;;;;5064400;28;20128;-72
2023/12/20 03:45:27;;;;;;;1.15;0.63;;;4.50;99.90;;;;;;5064811;28;20055;-72
2023/12/20 03:47:55;;;;;;;1.13;0.70;;;4.50;99.90;;;;;;5062670;28;20037;-72
2023/12/20 03:50:22;;;;;;;1.45;0.70;;;4.50;99.90;;;;;;5061959;28;20048;-72
2023/12/20 03:52:47;;;;;;;1.45;0.73;;;4.50;99.90;;;;;;5065994;28;20036;-72
2023/12/20 03:55:13;;;;;;;0.47;0.40;;;4.60;99.90;;;;;;5056813;28;20048;-73
2023/12/20 03:57:38;;;;;;;4.18;1.23;;;4.60;99.90;;;;;;5063331;28;20035;-72
2023/12/20 04:00:05;;;;;;;1.73;0.60;;;4.60;99.90;;;;;;5061906;28;20060;-72
2023/12/20 04:02:30;;;;;;;1.40;0.70;;;4.60;99.90;;;;;;5063255;28;20392;-73
2023/12/20 04:04:56;;;;;;;0.50;0.50;;;4.60;99.90;;;;;;5065521;28;20028;-72
2023/12/20 04:07:21;;;;;;;1.77;1.33;;;4.60;99.90;;;;;;5067259;28;20401;-72
2023/12/20 04:09:48;;;;;;;2.55;0.65;;;4.60;99.90;;;;;;5065015;28;20036;-75
2023/12/20 04:12:13;;;;;;;0.65;0.60;;;4.60;99.90;;;;;;5062236;28;20061;-75
2023/12/20 04:14:39;;;;;;;2.55;0.85;;;4.70;99.90;;;;;;5058328;28;20441;-75
2023/12/20 04:17:04;;;;;;;1.05;0.63;;;4.60;99.90;;;;;;5063094;28;20025;-75
2023/12/20 04:19:30;;;;;;;0.93;0.55;;;4.60;99.90;;;;;;5063231;28;20243;-75
2023/12/20 04:21:55;;;;;;;0.95;0.47;;;4.70;99.90;;;;;;5061104;28;20056;-75
2023/12/20 04:24:20;;;;;;;2.15;1.15;;;4.70;99.90;;;;;;5062751;28;20051;-75
2023/12/20 04:26:46;;;;;;;0.82;0.50;;;4.70;99.90;;;;;;5062185;28;20040;-74
2023/12/20 04:29:12;;;;;;;1.02;0.60;;;4.70;99.90;;;;;;5058956;28;20116;-75
2023/12/20 04:31:37;;;;;;;0.85;0.75;;;4.70;99.90;;;;;;5060018;28;20032;-75
2023/12/20 04:34:03;;;;;;;1.30;0.98;;;4.70;99.90;;;;;;5064744;28;20089;-75
2023/12/20 04:36:29;;;;;;;4.60;0.85;;;4.70;99.90;;;;;;5065438;28;20350;-75
2023/12/20 04:38:55;;;;;;;1.95;1.10;;;4.80;99.90;;;;;;5054650;28;20022;-75
2023/12/20 04:41:20;;;;;;;2.45;1.10;;;4.80;99.90;;;;;;5042839;28;20406;-75
2023/12/20 04:43:46;;;;;;;1.63;0.95;;;4.80;99.90;;;;;;5044213;28;20029;-75
2023/12/20 04:46:11;;;;;;;3.35;0.68;;;4.80;99.90;;;;;;5049418;28;20055;-75
2023/12/20 04:48:37;;;;;;;2.17;1.20;;;4.80;99.90;;;;;;5046813;28;20029;-75
2023/12/20 04:51:02;;;;;;;2.85;1.25;;;4.80;99.90;;;;;;5049428;28;20033;-75
2023/12/20 04:53:28;;;;;;;1.80;1.02;;;4.90;99.90;;;;;;5048948;28;20021;-74
2023/12/20 04:55:53;;;;;;;2.47;1.27;;;4.90;99.90;;;;;;5049183;28;20033;-75
2023/12/20 04:58:19;;;;;;;2.80;1.50;;;5.00;99.90;;;;;;5050277;28;20119;-74
2023/12/20 05:00:44;;;;;;;2.45;1.38;;;5.00;99.90;;;;;;5048953;28;20507;-75
2023/12/20 05:03:10;;;;;;;2.47;1.42;;;5.00;99.90;;;;;;5048753;28;20040;-78
2023/12/20 05:05:36;;;;;;;3.28;1.48;;;5.00;99.90;;;;;;5046730;28;20040;-77
2023/12/20 05:08:01;;;;;;;3.30;1.42;;;5.00;99.90;;;;;;5044868;28;20099;-75
2023/12/20 05:10:27;;;;;;;5.88;1.40;;;5.00;99.90;;;;;;5047089;28;20033;-75
2023/12/20 05:12:53;;;;;;;5.05;1.52;;;5.00;99.80;;;;;;5041283;28;20029;-74
2023/12/20 05:15:18;;;;;;;3.10;1.88;;;5.00;99.70;;;;;;5048017;28;20044;-74
2023/12/20 05:17:44;;;;;;;3.33;1.55;;;5.10;99.60;;;;;;5047091;28;20179;-74
2023/12/20 05:20:10;;;;;;;2.20;1.42;;;5.10;99.60;;;;;;5045528;28;20301;-75
2023/12/20 05:22:35;;;;;;;3.47;1.17;;;5.10;99.70;;;;;;5048405;28;20181;-74
2023/12/20 05:25:01;;;;;;;1.13;0.93;;;5.10;99.80;;;;;;5047626;28;20510;-75
2023/12/20 05:27:26;;;;;;;2.60;1.38;;;5.10;99.90;;;;;;5041672;28;20187;-75
2023/12/20 05:29:52;;;;;;;2.17;1.65;;;5.10;99.80;;;;;;5039822;28;20041;-75
2023/12/20 05:32:17;;;;;;;2.83;1.25;;;5.10;99.80;;;;;;5037813;28;20029;-75
2023/12/20 05:34:43;;;;;;;7.90;1.08;;;5.10;99.80;;;;;;5052866;28;20048;-74
2023/12/20 05:37:08;;;;;;;3.25;1.30;;;5.10;99.70;;;;;;5054485;28;20036;-74
2023/12/20 05:39:34;;;;;;;1.50;1.00;;;5.10;99.70;;;;;;5049314;28;20563;-74
2023/12/20 05:41:59;;;;;;;1.98;1.27;;;5.10;99.80;;;;;;5046861;28;20036;-74
2023/12/20 05:44:25;;;;;;;2.08;1.27;;;5.10;99.90;;;;;;5039917;28;20339;-74
2023/12/20 05:46:50;;;;;;;3.42;1.60;;;5.10;99.80;;;;;;5043833;28;20044;-74
2023/12/20 05:49:16;;;;;;;3.00;1.42;;;5.10;99.80;;;;;;5041910;28;20032;-75
2023/12/20 05:51:41;;;;;;;2.20;1.33;;;5.10;99.70;;;;;;5042998;28;20059;-73
2023/12/20 05:54:09;;;;;;;3.83;1.63;;;5.10;99.70;;;;;;5043299;28;20468;-74
2023/12/20 05:56:35;;;;;;;2.50;1.30;;;5.10;99.80;;;;;;5041031;28;20057;-72
2023/12/20 05:59:00;;;;;;;3.65;1.95;;;5.10;99.70;;;;;;5043674;28;20167;-71
2023/12/20 06:01:26;;;;;;;2.38;1.33;;;5.10;99.70;;;;;;5044849;28;20477;-72
2023/12/20 06:03:51;;;;;;;3.35;1.50;;;5.10;99.60;;;;;;5043833;28;20097;-74
2023/12/20 06:06:17;;;;;;;2.53;1.15;;;5.10;99.60;;;;;;5043682;28;20145;-74
2023/12/20 06:08:43;;;;;;;2.10;1.30;;;5.20;99.20;;;;;;5046110;28;20025;-74
2023/12/20 06:11:08;;;;;;;2.45;1.45;;;5.20;99.20;;;;;;5041032;28;20115;-73
2023/12/20 06:13:35;;;;;;;2.05;1.10;;;5.20;99.30;;;;;;5041101;28;20052;-72
2023/12/20 06:16:00;;;;;;;4.85;1.58;;;5.10;99.50;;;;;;5045365;28;20031;-72
2023/12/20 06:18:26;;;;;;;3.42;1.92;;;5.20;99.60;;;;;;5044461;28;20374;-72
2023/12/20 06:20:51;;;;;;;2.70;1.67;;;5.20;99.50;;;;;;5042114;28;20043;-73
2023/12/20 06:23:17;;;;;;;2.28;1.50;;;5.20;99.40;;;;;;5045716;28;20381;-73
2023/12/20 06:25:44;;;;;;;2.95;1.80;;;5.10;99.50;;;;;;5036187;28;20037;-72
2023/12/20 06:28:10;;;;;;;4.07;2.00;;;5.20;99.60;;;;;;5045485;28;20053;-72
2023/12/20 06:30:36;;;;;;;2.45;1.50;;;5.20;99.50;;;;;;5044572;28;20127;-72
2023/12/20 06:33:01;;;;;;;2.97;1.55;;;5.20;99.40;;;;;;5041857;28;20084;-72
2023/12/20 06:35:27;;;;;;;4.03;2.00;;;5.20;99.50;;;;;;5051651;28;20044;-72
2023/12/20 06:37:52;;;;;;;6.45;2.15;;;5.20;99.40;;;;;;5041800;28;20143;-72
2023/12/20 06:40:18;;;;;;;4.07;1.95;;;5.20;99.50;;;;;;5045508;28;20028;-73
2023/12/20 06:42:46;;;;;;;2.88;1.73;;;5.20;99.50;;;;;;5043047;28;20536;-72
2023/12/20 06:45:12;;;;;;;4.22;2.00;;;5.20;99.40;;;;;;5043639;28;20037;-72
2023/12/20 06:47:37;;;;;;;2.85;1.63;;;5.30;99.30;;;;;;5047858;28;20068;-72
2023/12/20 06:50:03;;;;;;;3.05;1.90;;;5.20;99.40;;;;;;5046582;28;20083;-73
2023/12/20 06:52:29;;;;;;;5.25;1.45;;;5.20;99.60;;;;;;5047388;28;20084;-72
2023/12/20 06:54:54;;;;;;;2.97;1.42;;;5.20;99.70;;;;;;5046677;28;20041;-72
2023/12/20 06:57:20;;;;;;;4.55;1.23;;;5.30;99.50;;;;;;5045598;28;20047;-72
2023/12/20 06:59:45;;;;;;;3.42;1.85;;;5.30;99.40;;;;;;5039025;28;20032;-72
2023/12/20 07:02:11;;;;;;;2.58;1.67;;;5.30;99.40;;;;;;5045533;28;20349;-72
2023/12/20 07:04:42;;;;;;;3.70;1.40;;;5.30;99.30;;;;;;5047477;28;20029;-73
2023/12/20 07:07:08;;;;;;;2.67;1.70;;;5.30;99.20;;;;;;5042614;28;20362;-72
2023/12/20 07:09:33;;;;;;;1.58;1.20;;;5.30;99.10;;;;;;5046231;28;20033;-72
2023/12/20 07:11:59;;;;;;;3.42;1.45;;;5.30;99.10;;;;;;5045042;28;20106;-73
2023/12/20 07:14:25;;;;;;;2.60;1.40;;;5.30;99.10;;;;;;5043478;28;20095;-73
2023/12/20 07:16:51;;;;;;;2.83;1.45;;;5.40;99.00;;;;;;5042477;28;20457;-71
2023/12/20 07:19:16;;;;;;;3.65;2.15;;;5.40;99.00;;;;;;5045218;28;20029;-73
2023/12/20 07:21:42;;;;;;;2.63;1.05;;;5.40;99.00;;;;;;5045077;28;20112;-72
2023/12/20 07:24:08;;;;;;;2.83;1.42;;;5.30;99.20;;;;;;5044363;28;20033;-73
2023/12/20 07:26:34;;;;;;;2.05;1.20;;;5.40;99.20;;;;;;5043635;28;20527;-73
2023/12/20 07:29:00;;;;;;;4.30;1.63;;;5.30;99.20;;;;;;5043783;28;20446;-72
2023/12/20 07:31:25;;;;;;;2.63;1.38;;;5.30;99.20;;;;;;5047011;28;20055;-72
2023/12/20 07:33:51;;;;;;;6.68;1.60;;;5.40;99.20;;;;;;5044045;28;20201;-72
2023/12/20 07:36:16;;;;;;;2.58;1.15;;;5.40;99.00;;;;;;5047282;28;20418;-72
2023/12/20 07:38:44;;;;;;;6.45;1.00;;;5.40;99.00;;;;;;5045960;28;20571;-72
2023/12/20 07:41:10;;;;;;;2.38;1.63;;;5.50;98.90;;;;;;5042124;28;20452;-73
2023/12/20 07:43:36;;;;;;;4.68;1.58;;;5.50;98.60;;;;;;5049972;28;20035;-71
2023/12/20 07:46:08;;;;;;;3.17;1.45;;;5.50;98.60;;;;;;5048101;28;20033;-72
2023/12/20 07:48:37;;;;;;;2.10;1.20;;;5.50;98.80;;;;;;5048455;28;20033;-73
2023/12/20 07:51:07;;;;;;;3.42;1.02;;;5.50;98.70;;;;;;5047596;28;20043;-70
2023/12/20 07:53:33;;;;;;;2.63;1.38;;;5.60;98.40;;;;;;5047493;28;20035;-77
2023/12/20 07:55:58;;;;;;;2.97;1.27;;;5.60;98.60;;;;;;5053043;28;20045;-77
2023/12/20 07:58:24;;;;;;;1.98;1.20;;;5.60;98.80;;;;;;5047565;28;20341;-76
2023/12/20 08:00:49;;;;;;;2.28;1.05;;;5.50;98.90;;;;;;5049829;28;20057;-77
2023/12/20 08:03:16;;;;;;;3.22;1.15;;;5.60;98.60;;;;;;5048674;28;20093;-76
2023/12/20 08:05:41;;;;;;;2.50;1.15;;;5.60;98.70;;;;;;5044017;28;20894;-76
2023/12/20 08:08:06;;;;;;;5.07;1.20;;;5.50;98.70;;;;;;5046434;28;20109;-77
2023/12/20 08:10:32;;;;;;;6.85;1.67;;;5.70;98.30;;;;;;5042176;28;20405;-76
2023/12/20 08:12:58;;;;;;;3.83;1.48;;;5.70;97.90;;;;;;5041684;28;20037;-76
2023/12/20 08:15:23;;;;;;;3.47;1.55;;;5.70;97.90;;;;;;5044542;28;20033;-77
2023/12/20 08:17:50;;;;;;;5.43;1.00;;;5.70;98.00;;;;;;5052732;28;20124;-76
2023/12/20 08:20:16;;;;;;;1.63;1.45;;;5.80;97.50;;;;;;5053121;28;20043;-76
2023/12/20 08:22:42;;;;;;;6.80;1.77;;;5.80;97.70;;;;;;5048779;28;20033;-77
2023/12/20 08:25:08;;;;;;;4.55;2.33;;;5.90;97.30;;;;;;5049395;28;20029;-73
2023/12/20 08:27:36;;;;;;;3.28;0.95;;;5.80;97.60;;;;;;5047973;28;20489;-72
2023/12/20 08:30:01;;;;;;;1.38;1.15;;;5.80;97.80;;;;;;5046913;28;20083;-75
2023/12/20 08:32:27;;;;;;;2.75;0.88;;;5.90;97.60;;;;;;5052860;28;20025;-76
2023/12/20 08:34:52;;;;;;;2.97;1.38;;;5.90;97.60;;;;;;5052301;28;20041;-76
2023/12/20 08:37:18;;;;;;;5.30;2.15;;;5.90;97.50;;;;;;5048492;28;20326;-75
2023/12/20 08:39:43;;;;;;;6.13;1.73;;;6.00;97.50;;;;;;5048236;28;20048;-76
2023/12/20 08:42:09;;;;;;;4.22;1.33;;;6.00;97.50;;;;;;5047572;28;20036;-76
2023/12/20 08:44:34;;;;;;;4.18;1.38;;;5.90;97.60;;;;;;5052394;28;20197;-76
2023/12/20 08:47:00;;;;;;;3.83;1.42;;;6.00;98.00;;;;;;5058789;28;20095;-75
2023/12/20 08:49:25;;;;;;;2.38;1.20;;;5.90;98.40;;;;;;5049255;28;20338;-75
2023/12/20 08:51:51;;;;;;;2.33;0.90;;;5.80;98.80;;;;;;5049135;28;20532;-74
2023/12/20 08:54:17;;;;;;;1.50;1.17;;;5.80;98.90;;;;;;5047058;28;20049;-75
2023/12/20 08:56:43;;;;;;;1.95;1.05;;;5.70;99.30;;;;;;5043163;28;20036;-74
2023/12/20 08:59:09;;;;;;;3.17;1.70;;;5.70;99.60;;;;;;5048949;28;20051;-74
2023/12/20 09:01:35;;;;;;;7.72;1.80;;;5.70;99.60;;;;;;5053040;28;20020;-74
2023/12/20 09:04:00;;;;;;;2.53;1.13;;;5.70;99.60;;;;;;5049211;28;20059;-75
2023/12/20 09:06:26;;;;;;;2.13;1.27;;;5.70;99.50;;;;;;5053301;28;20036;-75
2023/12/20 09:08:51;;;;;;;2.40;1.75;;;5.70;99.70;;;;;;5046754;28;20041;-75
2023/12/20 09:11:17;;;;;;;2.28;1.25;;;5.70;99.70;;;;;;5044040;28;20044;-74
2023/12/20 09:13:44;;;;;;;2.65;1.02;;;5.70;99.70;;;;;;5047537;28;20029;-75
2023/12/20 09:16:09;;;;;;;5.53;2.20;;;5.70;99.60;;;;;;5049228;28;20044;-75
2023/12/20 09:18:35;;;;;;;2.17;1.40;;;5.80;99.40;;;;;;5049929;28;20033;-75
2023/12/20 09:21:02;;;;;;;7.20;1.45;;;5.80;99.40;;;;;;5049564;28;20057;-77
2023/12/20 09:23:27;;;;;;;1.55;1.23;;;5.80;99.70;;;;;;5046187;28;20044;-75
2023/12/20 09:25:53;;;;;;;3.97;1.50;;;5.90;99.10;;;;;;5047290;28;20394;-76
2023/12/20 09:28:18;;;;;;;1.75;1.00;;;6.00;98.90;;;;;;5044286;28;20184;-75
2023/12/20 09:30:45;;;;;;;1.75;0.80;;;6.00;99.00;;;;;;5047228;28;20100;-75
2023/12/20 09:33:11;;;;;;;1.90;0.98;;;5.90;99.00;;;;;;5049583;28;20116;-75
2023/12/20 09:35:37;;;;;;;0.95;0.57;;;5.90;98.40;;;;;;5050222;28;20109;-76
2023/12/20 09:38:02;;;;;;;1.00;0.68;;;5.80;98.30;;;;;;5046703;28;20037;-74
2023/12/20 09:40:28;;;;;;;0.47;0.40;;;5.70;98.60;;;;;;5048758;28;20108;-74
2023/12/20 09:43:00;;;;;;;1.95;0.40;;;5.50;99.30;;;;;;5045462;28;20100;-74
2023/12/20 09:45:26;;;;;;;2.15;0.43;;;5.10;99.50;;;;;;5046535;28;20052;-74
2023/12/20 09:47:54;;;;;;;0.10;0.10;;;4.90;99.30;;;;;;5043226;28;20056;-75
2023/12/20 09:50:21;;;;;;;0.10;0.10;;;4.70;99.20;;;;;;5039729;28;20319;-75
2023/12/20 09:52:51;;;;;;;0.38;0.20;;;4.60;99.10;;;;;;5048389;28;20029;-74
2023/12/20 09:55:19;;;;;;;0.15;0.15;;;4.50;98.90;;;;;;5047602;28;20083;-75
2023/12/20 09:57:45;;;;;;;0.45;0.30;;;4.40;98.60;;;;;;5046748;28;20091;-75
2023/12/20 10:00:11;;;;;;;0.10;0.10;;;4.40;99.00;;;;;;5044634;28;20031;-75
2023/12/20 10:02:41;;;;;;;0.20;0.20;;;4.30;99.20;;;;;;5048770;28;20033;-77
2023/12/20 10:05:08;;;;;;;0.30;0.20;;;4.30;99.50;;;;;;5044117;28;20116;-74
2023/12/20 10:07:35;;;;;;;0.55;0.10;;;4.40;99.60;;;;;;5044442;28;20135;-85
2023/12/20 10:10:02;;;;;;;0.10;0.10;;;4.40;99.60;;;;;;5045466;28;20400;-74
2023/12/20 10:12:27;;;;;;;0.28;0.20;;;4.40;99.70;;;;;;5047266;28;20429;-74
2023/12/20 10:14:53;;;;;;;0.10;0.10;;;4.40;99.80;;;;;;5044220;28;20041;-74
2023/12/20 10:17:18;;;;;;;0.52;0.10;;;4.40;99.90;;;;;;5048335;28;20029;-79
2023/12/20 10:19:44;;;;;;;0.47;0.20;;;4.50;99.90;;;;;;5046573;28;20108;-79
2023/12/20 10:22:10;;;;;;;0.52;0.35;;;4.50;99.90;;;;;;5046202;28;20032;-79
2023/12/20 10:24:36;;;;;;;0.50;0.30;;;4.60;99.90;;;;;;5047498;28;20033;-79
2023/12/20 10:27:07;;;;;;;1.60;0.35;;;4.60;99.90;;;;;;5050437;28;20468;-79
2023/12/20 10:29:36;;;;;;;0.20;0.10;;;4.70;99.90;;;;;;5043903;28;20452;-77
2023/12/20 10:32:25;;;;;;;0.10;0.10;;;4.80;99.90;;;;;;5049134;28;20040;-79
2023/12/20 10:34:51;;;;;;;0.32;0.20;;;4.90;99.90;;;;;;5046141;28;20080;-79
2023/12/20 10:37:17;;;;;;;2.10;1.00;;;5.00;99.90;;;;;;5042277;28;20052;-79
2023/12/20 10:39:43;;;;;;;0.38;0.38;;;5.00;99.50;;;;;;5046836;28;20117;-78
2023/12/20 10:42:14;;;;;;;0.63;0.40;;;5.00;99.10;;;;;;5045896;28;20033;-79
2023/12/20 10:44:39;;;;;;;0.75;0.30;;;5.00;99.00;;;;;;5045350;28;20047;-80
2023/12/20 10:47:06;;;;;;;0.30;0.20;;;5.00;99.00;;;;;;5047592;28;20443;-78
2023/12/20 10:49:34;;;;;;;1.45;0.30;;;5.00;98.70;;;;;;5048004;28;20090;-80
2023/12/20 10:52:02;;;;;;;0.40;0.25;;;5.00;99.00;;;;;;5047249;28;20127;-79
2023/12/20 10:54:27;;;;;;;3.13;0.68;;;5.00;98.90;;;;;;5039795;28;20063;-80
2023/12/20 10:56:54;;;;;;;0.10;0.10;;;5.00;98.40;;;;;;5049437;28;20089;-79
2023/12/20 10:59:21;;;;;;;0.22;0.20;;;5.10;98.40;;;;;;5045950;28;20389;-80
2023/12/20 11:01:49;;;;;;;0.32;0.10;;;5.10;98.00;;;;;;5046783;28;20506;-80
2023/12/20 11:04:21;;;;;;;1.65;0.63;;;5.10;97.90;;;;;;5049104;28;20115;-80
2023/12/20 11:06:53;;;;;;;0.65;0.47;;;5.10;97.70;;;;;;5046650;28;20040;-79
2023/12/20 11:09:27;;;;;;;0.22;0.20;;;5.20;97.00;;;;;;5046664;28;20492;-81
2023/12/20 11:12:28;;;;;;;0.88;0.20;;;5.20;97.00;;;;;;5043158;28;20040;-76
2023/12/20 11:14:57;;;;;;;0.85;0.35;;;5.30;97.10;;;;;;5041112;28;20037;-79
2023/12/20 11:17:23;;;;;;;0.65;0.40;;;5.30;97.40;;;;;;5047452;28;20067;-79
2023/12/20 11:19:58;;;;;;;0.60;0.40;;;5.40;97.10;;;;;;5047306;28;20025;-80
2023/12/20 11:22:29;;;;;;;0.73;0.28;;;5.40;97.30;;;;;;5042355;28;20029;-79
2023/12/20 11:25:02;;;;;;;1.52;0.40;;;5.40;97.40;;;;;;5043943;28;20064;-79
2023/12/20 11:27:28;;;;;;;2.35;0.50;;;5.50;97.30;;;;;;5041711;28;20377;-80
2023/12/20 11:29:56;;;;;;;0.63;0.40;;;5.60;97.00;;;;;;5045186;28;20040;-81
2023/12/20 11:32:28;;;;;;;0.30;0.20;;;5.60;96.70;;;;;;5048377;28;20026;-81
2023/12/20 11:34:59;;;;;;;0.35;0.32;;;5.70;96.40;;;;;;5048225;28;20489;-83
2023/12/20 11:37:35;;;;;;;2.60;0.30;;;5.70;96.20;;;;;;5046873;28;20036;-81
2023/12/20 11:40:05;;;;;;;0.32;0.20;;;5.70;95.90;;;;;;5046616;28;20483;-81
2023/12/20 11:42:38;;;;;;;2.40;0.32;;;5.80;95.90;;;;;;5043174;28;20329;-81
2023/12/20 11:45:04;;;;;;;2.30;0.28;;;5.90;95.30;;;;;;5044105;28;20532;-81
2023/12/20 11:47:31;;;;;;;1.40;0.38;;;6.00;95.30;;;;;;5047259;28;20124;-81
2023/12/20 11:49:57;;;;;;;1.27;0.43;;;6.00;95.30;;;;;;5046232;28;20372;-79
2023/12/20 11:52:22;;;;;;;0.30;0.30;;;6.00;95.00;;;;;;5051375;28;20041;-79
2023/12/20 11:54:48;;;;;;;1.33;0.32;;;6.10;94.50;;;;;;5049210;28;20095;-83
2023/12/20 11:57:14;;;;;;;0.88;0.28;;;6.10;94.20;;;;;;5049717;28;20105;-82
2023/12/20 11:59:39;;;;;;;1.42;0.80;;;6.20;93.50;;;;;;5054077;28;20056;-82
2023/12/20 12:02:05;;;;;;;1.25;0.40;;;6.40;93.30;;;;;;5049883;28;20048;-80
2023/12/20 12:04:31;;;;;;;0.95;0.77;;;6.50;93.80;;;;;;5049506;28;20041;-81
2023/12/20 12:06:56;;;;;;;0.15;0.08;;;6.40;93.20;;;;;;5049898;28;20444;-79
2023/12/20 12:09:22;;;;;;;0.77;0.47;;;6.50;92.90;;;;;;5052176;28;20064;-82
2023/12/20 12:11:47;;;;;;;2.38;0.65;;;6.70;92.80;;;;;;5047217;28;20029;-80
2023/12/20 12:14:14;;;;;;;2.65;0.40;;;6.70;92.80;;;;;;5051673;28;20444;-78
2023/12/20 12:16:42;;;;;;;1.70;0.20;;;6.70;92.80;;;;;;5049462;28;20021;-79
2023/12/20 12:19:07;;;;;;;0.85;0.30;;;6.60;93.40;;;;;;5050584;28;20100;-79
2023/12/20 12:21:33;;;;;;;0.90;0.20;;;6.40;94.70;;;;;;5048819;28;20124;-80
2023/12/20 12:24:09;;;;;;;0.20;0.20;;;5.60;92.60;;;;;;5047413;28;20072;-79
2023/12/20 12:26:35;;;;;;;0.20;0.20;;;5.30;94.20;;;;;;5048225;28;20480;-78
2023/12/20 12:29:00;;;;;;;1.10;0.30;;;5.00;95.30;;;;;;5048708;28;20033;-78
2023/12/20 12:31:26;;;;;;;0.17;0.10;;;4.80;96.20;;;;;;5052667;28;20067;-78
2023/12/20 12:33:52;;;;;;;0.15;0.15;;;4.70;96.60;;;;;;5049028;28;20044;-78
2023/12/20 12:36:18;;;;;;;3.35;0.40;;;4.70;96.70;;;;;;5047958;28;20040;-78
2023/12/20 12:38:44;;;;;;;2.17;0.63;;;4.70;97.20;;;;;;5049002;28;20120;-78
2023/12/20 12:41:10;;;;;;;0.73;0.30;;;4.70;97.20;;;;;;5049301;28;20154;-77
2023/12/20 12:43:36;;;;;;;1.33;0.88;;;4.80;96.80;;;;;;5050724;28;20108;-79
2023/12/20 12:46:01;;;;;;;2.08;0.73;;;5.00;97.00;;;;;;5049807;28;20029;-78
2023/12/20 12:48:28;;;;;;;1.35;0.43;;;5.10;96.90;;;;;;5055653;28;20124;-78
2023/12/20 12:50:54;;;;;;;1.70;0.55;;;5.10;97.20;;;;;;5047128;28;20456;-77
2023/12/20 12:53:19;;;;;;;1.10;0.57;;;5.20;97.50;;;;;;5047275;28;20124;-77